Volney, Iowa
Current Conditions -  °F | °C
As of 7:15 AM on Thursday 23 Oct 2014 (Local Time) from KPDC Reporting Station
Overcast Overcast  
Wind Chill: 51°   Ceiling: 2900
Heat Index: 51°   Visibility: 10mi
Dew Point: 38°   Wind: 6mph
Humidity: 62%   Direction: 140°SE
Pressure: 30.09"   Gusts: NA
Location:  43.0888°N, 91.4288°W
Report Text: KPDC 231215Z AUTO 14005KT 10SM BKN029 BKN055 OVC110 10/03 A3009 RMK AO2 T01030033
Loading
Personal Weather Stations






























Interactive Weather Map
Tropical Storm Tracking
New forecast layout! Learn more

10-Day Weather Forecast

Advertisements
Track Severe Weather on mobile